sensor_id;sensor_type;location;lat;lon;timestamp;temperature;humidity
9730;DHT22;4904;49.152;11.004;2023-01-01T00:00:13;13.20;99.90
9730;DHT22;4904;49.152;11.004;2023-01-01T00:02:41;13.10;99.90
9730;DHT22;4904;49.152;11.004;2023-01-01T00:05:08;12.90;99.90
9730;DHT22;4904;49.152;11.004;2023-01-01T00:07:35;12.80;99.90
9730;DHT22;4904;49.152;11.004;2023-01-01T00:10:03;12.70;99.90
9730;DHT22;4904;49.152;11.004;2023-01-01T00:12:48;12.70;99.90
9730;DHT22;4904;49.152;11.004;2023-01-01T00:15:15;12.70;99.90
9730;DHT22;4904;49.152;11.004;2023-01-01T00:17:43;12.70;99.90
9730;DHT22;4904;49.152;11.004;2023-01-01T00:20:10;12.80;99.90
9730;DHT22;4904;49.152;11.004;2023-01-01T00:22:38;12.90;99.90
9730;DHT22;4904;49.152;11.004;2023-01-01T00:25:05;12.90;99.90
9730;DHT22;4904;49.152;11.004;2023-01-01T00:27:32;12.90;99.90
9730;DHT22;4904;49.152;11.004;2023-01-01T00:30:00;12.90;99.90
9730;DHT22;4904;49.152;11.004;2023-01-01T00:32:28;12.90;99.90
9730;DHT22;4904;49.152;11.004;2023-01-01T00:34:56;12.90;99.90
9730;DHT22;4904;49.152;11.004;2023-01-01T00:37:23;12.80;99.90
9730;DHT22;4904;49.152;11.004;2023-01-01T00:39:50;12.70;99.90
9730;DHT22;4904;49.152;11.004;2023-01-01T00:42:17;12.40;99.90
9730;DHT22;4904;49.152;11.004;2023-01-01T00:44:44;12.50;99.90
9730;DHT22;4904;49.152;11.004;2023-01-01T00:47:11;12.50;99.90
9730;DHT22;4904;49.152;11.004;2023-01-01T00:49:38;12.40;99.90
9730;DHT22;4904;49.152;11.004;2023-01-01T00:52:06;12.50;99.90
9730;DHT22;4904;49.152;11.004;2023-01-01T00:54:33;12.50;99.90
9730;DHT22;4904;49.152;11.004;2023-01-01T00:57:00;12.50;99.90
9730;DHT22;4904;49.152;11.004;2023-01-01T00:59:27;12.50;99.90
9730;DHT22;4904;49.152;11.004;2023-01-01T01:01:54;12.50;99.90
9730;DHT22;4904;49.152;11.004;2023-01-01T01:04:21;12.40;99.90
9730;DHT22;4904;49.152;11.004;2023-01-01T01:06:47;12.40;99.90
9730;DHT22;4904;49.152;11.004;2023-01-01T01:09:16;12.40;99.90
9730;DHT22;4904;49.152;11.004;2023-01-01T01:11:43;12.40;99.90
9730;DHT22;4904;49.152;11.004;2023-01-01T01:14:09;12.40;99.90
9730;DHT22;4904;49.152;11.004;2023-01-01T01:16:36;12.40;99.90
9730;DHT22;4904;49.152;11.004;2023-01-01T01:19:04;12.40;99.90
9730;DHT22;4904;49.152;11.004;2023-01-01T01:21:33;12.40;99.90
9730;DHT22;4904;49.152;11.004;2023-01-01T01:24:01;12.40;99.90
9730;DHT22;4904;49.152;11.004;2023-01-01T01:26:31;12.40;99.90
9730;DHT22;4904;49.152;11.004;2023-01-01T01:28:58;12.50;99.90
9730;DHT22;4904;49.152;11.004;2023-01-01T01:31:27;12.50;99.90
9730;DHT22;4904;49.152;11.004;2023-01-01T01:33:57;12.60;99.90
9730;DHT22;4904;49.152;11.004;2023-01-01T01:36:25;12.60;99.90
9730;DHT22;4904;49.152;11.004;2023-01-01T01:38:52;12.60;99.90
9730;DHT22;4904;49.152;11.004;2023-01-01T01:41:21;12.70;99.90
9730;DHT22;4904;49.152;11.004;2023-01-01T01:43:55;12.70;99.90
9730;DHT22;4904;49.152;11.004;2023-01-01T01:46:27;12.70;99.90
9730;DHT22;4904;49.152;11.004;2023-01-01T01:48:59;12.70;99.90
9730;DHT22;4904;49.152;11.004;2023-01-01T01:51:32;12.70;99.90
9730;DHT22;4904;49.152;11.004;2023-01-01T01:54:04;12.70;99.90
9730;DHT22;4904;49.152;11.004;2023-01-01T01:56:38;12.70;99.90
9730;DHT22;4904;49.152;11.004;2023-01-01T01:59:07;12.70;99.90
9730;DHT22;4904;49.152;11.004;2023-01-01T02:01:34;12.60;99.90
9730;DHT22;4904;49.152;11.004;2023-01-01T02:04:02;12.60;99.90
9730;DHT22;4904;49.152;11.004;2023-01-01T02:06:30;12.60;99.90
9730;DHT22;4904;49.152;11.004;2023-01-01T02:09:01;12.60;99.90
9730;DHT22;4904;49.152;11.004;2023-01-01T02:11:29;12.60;99.90
9730;DHT22;4904;49.152;11.004;2023-01-01T02:13:57;12.60;99.90
9730;DHT22;4904;49.152;11.004;2023-01-01T02:16:31;12.50;99.90
9730;DHT22;4904;49.152;11.004;2023-01-01T02:19:09;12.50;99.90
9730;DHT22;4904;49.152;11.004;2023-01-01T02:21:44;12.50;99.90
9730;DHT22;4904;49.152;11.004;2023-01-01T02:24:31;12.60;99.90
9730;DHT22;4904;49.152;11.004;2023-01-01T02:27:03;12.60;99.90
9730;DHT22;4904;49.152;11.004;2023-01-01T02:29:38;12.60;99.90
9730;DHT22;4904;49.152;11.004;2023-01-01T02:32:08;12.70;99.90
9730;DHT22;4904;49.152;11.004;2023-01-01T02:34:39;12.80;99.90
9730;DHT22;4904;49.152;11.004;2023-01-01T02:37:10;12.90;99.90
9730;DHT22;4904;49.152;11.004;2023-01-01T02:39:44;12.80;99.90
9730;DHT22;4904;49.152;11.004;2023-01-01T02:42:12;12.90;99.90
9730;DHT22;4904;49.152;11.004;2023-01-01T02:44:41;12.80;99.90
9730;DHT22;4904;49.152;11.004;2023-01-01T02:47:12;12.90;99.90
9730;DHT22;4904;49.152;11.004;2023-01-01T02:49:47;12.90;99.90
9730;DHT22;4904;49.152;11.004;2023-01-01T02:52:27;12.80;99.90
9730;DHT22;4904;49.152;11.004;2023-01-01T02:55:03;12.90;99.90
9730;DHT22;4904;49.152;11.004;2023-01-01T02:57:36;12.90;99.90
9730;DHT22;4904;49.152;11.004;2023-01-01T03:00:08;13.10;99.90
9730;DHT22;4904;49.152;11.004;2023-01-01T03:02:52;13.00;99.90
9730;DHT22;4904;49.152;11.004;2023-01-01T03:05:30;13.00;99.90
9730;DHT22;4904;49.152;11.004;2023-01-01T03:08:05;13.00;99.90
9730;DHT22;4904;49.152;11.004;2023-01-01T03:10:41;13.00;99.90
9730;DHT22;4904;49.152;11.004;2023-01-01T03:13:14;12.90;99.90
9730;DHT22;4904;49.152;11.004;2023-01-01T03:15:50;12.90;99.90
9730;DHT22;4904;49.152;11.004;2023-01-01T03:18:27;12.90;99.90
9730;DHT22;4904;49.152;11.004;2023-01-01T03:21:00;12.90;99.90
9730;DHT22;4904;49.152;11.004;2023-01-01T03:23:34;12.90;99.90
9730;DHT22;4904;49.152;11.004;2023-01-01T03:26:06;12.80;99.90
9730;DHT22;4904;49.152;11.004;2023-01-01T03:28:36;12.90;99.90
9730;DHT22;4904;49.152;11.004;2023-01-01T03:31:08;12.90;99.90
9730;DHT22;4904;49.152;11.004;2023-01-01T03:33:38;12.80;99.90
9730;DHT22;4904;49.152;11.004;2023-01-01T03:36:09;12.80;99.90
9730;DHT22;4904;49.152;11.004;2023-01-01T03:38:40;12.80;99.90
9730;DHT22;4904;49.152;11.004;2023-01-01T03:41:11;12.80;99.90
9730;DHT22;4904;49.152;11.004;2023-01-01T03:43:45;12.70;99.90
9730;DHT22;4904;49.152;11.004;2023-01-01T03:46:17;12.80;99.90
9730;DHT22;4904;49.152;11.004;2023-01-01T03:48:46;12.70;99.90
9730;DHT22;4904;49.152;11.004;2023-01-01T03:51:25;12.80;99.90
9730;DHT22;4904;49.152;11.004;2023-01-01T03:53:55;12.70;99.90
9730;DHT22;4904;49.152;11.004;2023-01-01T03:56:28;12.80;99.90
9730;DHT22;4904;49.152;11.004;2023-01-01T03:59:00;12.70;99.90
9730;DHT22;4904;49.152;11.004;2023-01-01T04:01:35;12.80;99.90
9730;DHT22;4904;49.152;11.004;2023-01-01T04:04:04;12.80;99.90
9730;DHT22;4904;49.152;11.004;2023-01-01T04:06:32;12.70;99.90
9730;DHT22;4904;49.152;11.004;2023-01-01T04:08:59;12.90;99.90
9730;DHT22;4904;49.152;11.004;2023-01-01T04:11:30;12.90;99.90
9730;DHT22;4904;49.152;11.004;2023-01-01T04:14:25;12.80;99.90
9730;DHT22;4904;49.152;11.004;2023-01-01T04:16:54;12.80;99.90
9730;DHT22;4904;49.152;11.004;2023-01-01T04:19:21;12.70;99.90
9730;DHT22;4904;49.152;11.004;2023-01-01T04:21:48;12.80;99.90
9730;DHT22;4904;49.152;11.004;2023-01-01T04:24:15;12.70;99.90
9730;DHT22;4904;49.152;11.004;2023-01-01T04:26:41;12.60;99.90
9730;DHT22;4904;49.152;11.004;2023-01-01T04:29:08;12.70;99.90
9730;DHT22;4904;49.152;11.004;2023-01-01T04:31:35;12.60;99.90
9730;DHT22;4904;49.152;11.004;2023-01-01T04:34:04;12.50;99.90
9730;DHT22;4904;49.152;11.004;2023-01-01T04:36:30;12.50;99.90
9730;DHT22;4904;49.152;11.004;2023-01-01T04:38:57;12.40;99.90
9730;DHT22;4904;49.152;11.004;2023-01-01T04:41:24;12.40;99.90
9730;DHT22;4904;49.152;11.004;2023-01-01T04:43:51;12.50;99.90
9730;DHT22;4904;49.152;11.004;2023-01-01T04:46:19;12.60;99.90
9730;DHT22;4904;49.152;11.004;2023-01-01T04:48:46;12.50;99.90
9730;DHT22;4904;49.152;11.004;2023-01-01T04:51:16;12.50;99.90
9730;DHT22;4904;49.152;11.004;2023-01-01T04:53:43;12.40;99.90
9730;DHT22;4904;49.152;11.004;2023-01-01T04:56:12;12.50;99.90
9730;DHT22;4904;49.152;11.004;2023-01-01T04:58:40;12.40;99.90
9730;DHT22;4904;49.152;11.004;2023-01-01T05:01:08;12.40;99.90
9730;DHT22;4904;49.152;11.004;2023-01-01T05:03:39;12.30;99.90
9730;DHT22;4904;49.152;11.004;2023-01-01T05:06:07;12.20;99.90
9730;DHT22;4904;49.152;11.004;2023-01-01T05:08:37;12.10;99.90
9730;DHT22;4904;49.152;11.004;2023-01-01T05:11:06;12.10;99.90
9730;DHT22;4904;49.152;11.004;2023-01-01T05:13:33;12.10;99.90
9730;DHT22;4904;49.152;11.004;2023-01-01T05:16:01;12.10;99.90
9730;DHT22;4904;49.152;11.004;2023-01-01T05:18:28;11.90;99.90
9730;DHT22;4904;49.152;11.004;2023-01-01T05:20:58;11.80;99.90
9730;DHT22;4904;49.152;11.004;2023-01-01T05:23:26;11.80;99.90
9730;DHT22;4904;49.152;11.004;2023-01-01T05:25:54;11.90;99.90
9730;DHT22;4904;49.152;11.004;2023-01-01T05:28:22;11.90;99.90
9730;DHT22;4904;49.152;11.004;2023-01-01T05:30:49;12.00;99.90
9730;DHT22;4904;49.152;11.004;2023-01-01T05:33:16;11.90;99.90
9730;DHT22;4904;49.152;11.004;2023-01-01T05:35:43;12.00;99.90
9730;DHT22;4904;49.152;11.004;2023-01-01T05:38:10;12.00;99.90
9730;DHT22;4904;49.152;11.004;2023-01-01T05:40:37;12.00;99.90
9730;DHT22;4904;49.152;11.004;2023-01-01T05:43:06;12.10;99.90
9730;DHT22;4904;49.152;11.004;2023-01-01T05:45:33;12.10;99.90
9730;DHT22;4904;49.152;11.004;2023-01-01T05:48:00;12.10;99.90
9730;DHT22;4904;49.152;11.004;2023-01-01T05:50:27;12.00;99.90
9730;DHT22;4904;49.152;11.004;2023-01-01T05:52:54;12.00;99.90
9730;DHT22;4904;49.152;11.004;2023-01-01T05:55:21;11.90;99.90
9730;DHT22;4904;49.152;11.004;2023-01-01T05:57:47;11.90;99.90
9730;DHT22;4904;49.152;11.004;2023-01-01T06:00:16;11.80;99.90
9730;DHT22;4904;49.152;11.004;2023-01-01T06:02:43;11.80;99.90
9730;DHT22;4904;49.152;11.004;2023-01-01T06:05:10;11.80;99.90
9730;DHT22;4904;49.152;11.004;2023-01-01T06:07:37;11.70;99.90
9730;DHT22;4904;49.152;11.004;2023-01-01T06:10:05;11.80;99.90
9730;DHT22;4904;49.152;11.004;2023-01-01T06:12:31;11.80;99.90
9730;DHT22;4904;49.152;11.004;2023-01-01T06:14:58;11.80;99.90
9730;DHT22;4904;49.152;11.004;2023-01-01T06:17:26;11.70;99.90
9730;DHT22;4904;49.152;11.004;2023-01-01T06:19:53;11.70;99.90
9730;DHT22;4904;49.152;11.004;2023-01-01T06:22:20;11.80;99.90
9730;DHT22;4904;49.152;11.004;2023-01-01T06:24:47;11.80;99.90
9730;DHT22;4904;49.152;11.004;2023-01-01T06:27:14;11.80;99.90
9730;DHT22;4904;49.152;11.004;2023-01-01T06:29:40;11.70;99.90
9730;DHT22;4904;49.152;11.004;2023-01-01T06:32:07;11.70;99.90
9730;DHT22;4904;49.152;11.004;2023-01-01T06:34:36;11.70;99.90
9730;DHT22;4904;49.152;11.004;2023-01-01T06:37:02;11.70;99.90
9730;DHT22;4904;49.152;11.004;2023-01-01T06:39:29;11.60;99.90
9730;DHT22;4904;49.152;11.004;2023-01-01T06:41:56;11.70;99.90
9730;DHT22;4904;49.152;11.004;2023-01-01T06:44:23;11.70;99.90
9730;DHT22;4904;49.152;11.004;2023-01-01T06:46:50;11.70;99.90
9730;DHT22;4904;49.152;11.004;2023-01-01T06:49:16;11.70;99.90
9730;DHT22;4904;49.152;11.004;2023-01-01T06:51:45;11.70;99.90
9730;DHT22;4904;49.152;11.004;2023-01-01T06:54:11;11.60;99.90
9730;DHT22;4904;49.152;11.004;2023-01-01T06:56:39;11.60;99.90
9730;DHT22;4904;49.152;11.004;2023-01-01T06:59:06;11.60;99.90
9730;DHT22;4904;49.152;11.004;2023-01-01T07:01:34;11.60;99.90
9730;DHT22;4904;49.152;11.004;2023-01-01T07:04:06;11.50;99.90
9730;DHT22;4904;49.152;11.004;2023-01-01T07:06:34;11.50;99.90
9730;DHT22;4904;49.152;11.004;2023-01-01T07:09:03;11.40;99.90
9730;DHT22;4904;49.152;11.004;2023-01-01T07:11:31;11.30;99.90
9730;DHT22;4904;49.152;11.004;2023-01-01T07:13:58;11.30;99.90
9730;DHT22;4904;49.152;11.004;2023-01-01T07:16:25;11.30;99.90
9730;DHT22;4904;49.152;11.004;2023-01-01T07:18:52;11.30;99.90
9730;DHT22;4904;49.152;11.004;2023-01-01T07:21:27;11.30;99.90
9730;DHT22;4904;49.152;11.004;2023-01-01T07:23:54;11.30;99.90
9730;DHT22;4904;49.152;11.004;2023-01-01T07:26:24;11.30;99.90
9730;DHT22;4904;49.152;11.004;2023-01-01T07:28:51;11.20;99.90
9730;DHT22;4904;49.152;11.004;2023-01-01T07:31:18;11.30;99.90
9730;DHT22;4904;49.152;11.004;2023-01-01T07:33:45;11.30;99.90
9730;DHT22;4904;49.152;11.004;2023-01-01T07:36:12;11.30;99.90
9730;DHT22;4904;49.152;11.004;2023-01-01T07:38:39;11.30;99.90
9730;DHT22;4904;49.152;11.004;2023-01-01T07:41:06;11.30;99.90
9730;DHT22;4904;49.152;11.004;2023-01-01T07:43:34;11.40;99.90
9730;DHT22;4904;49.152;11.004;2023-01-01T07:46:01;11.60;99.90
9730;DHT22;4904;49.152;11.004;2023-01-01T07:48:28;11.50;99.90
9730;DHT22;4904;49.152;11.004;2023-01-01T07:50:55;11.60;99.90
9730;DHT22;4904;49.152;11.004;2023-01-01T07:53:22;11.70;99.90
9730;DHT22;4904;49.152;11.004;2023-01-01T07:55:49;11.80;99.90
9730;DHT22;4904;49.152;11.004;2023-01-01T07:58:16;11.90;99.90
9730;DHT22;4904;49.152;11.004;2023-01-01T08:00:46;12.10;99.90
9730;DHT22;4904;49.152;11.004;2023-01-01T08:03:13;12.00;99.90
9730;DHT22;4904;49.152;11.004;2023-01-01T08:05:40;12.00;99.90
9730;DHT22;4904;49.152;11.004;2023-01-01T08:08:08;12.00;99.90
9730;DHT22;4904;49.152;11.004;2023-01-01T08:10:35;12.00;99.90
9730;DHT22;4904;49.152;11.004;2023-01-01T08:13:03;12.00;99.90
9730;DHT22;4904;49.152;11.004;2023-01-01T08:15:31;12.00;99.90
9730;DHT22;4904;49.152;11.004;2023-01-01T08:18:01;12.10;99.90
9730;DHT22;4904;49.152;11.004;2023-01-01T08:20:29;12.20;99.90
9730;DHT22;4904;49.152;11.004;2023-01-01T08:22:57;12.20;99.90
9730;DHT22;4904;49.152;11.004;2023-01-01T08:25:23;12.30;99.90
9730;DHT22;4904;49.152;11.004;2023-01-01T08:27:50;12.40;99.90
9730;DHT22;4904;49.152;11.004;2023-01-01T08:30:17;12.50;99.90
9730;DHT22;4904;49.152;11.004;2023-01-01T08:32:44;12.60;99.90
9730;DHT22;4904;49.152;11.004;2023-01-01T08:35:12;12.60;99.90
9730;DHT22;4904;49.152;11.004;2023-01-01T08:37:39;12.70;99.90
9730;DHT22;4904;49.152;11.004;2023-01-01T08:40:09;12.70;99.90
9730;DHT22;4904;49.152;11.004;2023-01-01T08:42:36;12.70;99.90
9730;DHT22;4904;49.152;11.004;2023-01-01T08:45:04;12.80;99.90
9730;DHT22;4904;49.152;11.004;2023-01-01T08:47:31;12.90;99.90
9730;DHT22;4904;49.152;11.004;2023-01-01T08:49:57;12.90;99.90
9730;DHT22;4904;49.152;11.004;2023-01-01T08:52:26;13.00;99.90
9730;DHT22;4904;49.152;11.004;2023-01-01T08:54:52;13.10;99.90
9730;DHT22;4904;49.152;11.004;2023-01-01T08:57:19;13.10;99.90
9730;DHT22;4904;49.152;11.004;2023-01-01T08:59:46;13.10;99.90
9730;DHT22;4904;49.152;11.004;2023-01-01T09:02:13;13.10;99.90
9730;DHT22;4904;49.152;11.004;2023-01-01T09:04:40;13.20;99.90
9730;DHT22;4904;49.152;11.004;2023-01-01T09:07:07;13.20;99.90
9730;DHT22;4904;49.152;11.004;2023-01-01T09:09:35;13.20;99.90
9730;DHT22;4904;49.152;11.004;2023-01-01T09:12:03;13.30;99.90
9730;DHT22;4904;49.152;11.004;2023-01-01T09:14:31;13.30;99.90
9730;DHT22;4904;49.152;11.004;2023-01-01T09:16:58;13.40;99.90
9730;DHT22;4904;49.152;11.004;2023-01-01T09:19:26;13.40;99.90
9730;DHT22;4904;49.152;11.004;2023-01-01T09:21:53;13.40;99.90
9730;DHT22;4904;49.152;11.004;2023-01-01T09:24:20;13.40;99.90
9730;DHT22;4904;49.152;11.004;2023-01-01T09:26:49;13.50;99.90
9730;DHT22;4904;49.152;11.004;2023-01-01T09:29:16;13.50;99.90
9730;DHT22;4904;49.152;11.004;2023-01-01T09:31:45;13.40;99.90
9730;DHT22;4904;49.152;11.004;2023-01-01T09:34:12;13.50;99.90
9730;DHT22;4904;49.152;11.004;2023-01-01T09:36:40;13.50;99.90
9730;DHT22;4904;49.152;11.004;2023-01-01T09:39:09;13.60;99.90
9730;DHT22;4904;49.152;11.004;2023-01-01T09:41:45;13.50;99.90
9730;DHT22;4904;49.152;11.004;2023-01-01T09:44:26;13.50;99.90
9730;DHT22;4904;49.152;11.004;2023-01-01T09:46:58;13.50;99.90
9730;DHT22;4904;49.152;11.004;2023-01-01T09:49:31;13.50;99.90
9730;DHT22;4904;49.152;11.004;2023-01-01T09:52:00;13.50;99.90
9730;DHT22;4904;49.152;11.004;2023-01-01T09:54:32;13.50;99.90
9730;DHT22;4904;49.152;11.004;2023-01-01T09:57:01;13.60;99.90
9730;DHT22;4904;49.152;11.004;2023-01-01T09:59:31;13.60;99.90
9730;DHT22;4904;49.152;11.004;2023-01-01T10:02:02;13.70;99.90
9730;DHT22;4904;49.152;11.004;2023-01-01T10:04:44;13.70;99.90
9730;DHT22;4904;49.152;11.004;2023-01-01T10:07:17;13.70;99.90
9730;DHT22;4904;49.152;11.004;2023-01-01T10:09:52;13.80;99.90
9730;DHT22;4904;49.152;11.004;2023-01-01T10:12:29;13.90;99.90
9730;DHT22;4904;49.152;11.004;2023-01-01T10:15:05;13.90;99.90
9730;DHT22;4904;49.152;11.004;2023-01-01T10:17:39;13.90;99.90
9730;DHT22;4904;49.152;11.004;2023-01-01T10:20:16;14.10;99.90
9730;DHT22;4904;49.152;11.004;2023-01-01T10:22:46;14.10;99.90
9730;DHT22;4904;49.152;11.004;2023-01-01T10:25:17;14.20;99.90
9730;DHT22;4904;49.152;11.004;2023-01-01T10:27:48;14.30;99.90
9730;DHT22;4904;49.152;11.004;2023-01-01T10:30:19;14.30;99.90
9730;DHT22;4904;49.152;11.004;2023-01-01T10:32:48;14.40;99.90
9730;DHT22;4904;49.152;11.004;2023-01-01T10:35:16;14.40;99.90
9730;DHT22;4904;49.152;11.004;2023-01-01T10:37:44;14.40;99.90
9730;DHT22;4904;49.152;11.004;2023-01-01T10:40:16;14.50;99.90
9730;DHT22;4904;49.152;11.004;2023-01-01T10:42:47;14.50;99.90
9730;DHT22;4904;49.152;11.004;2023-01-01T10:45:19;14.50;99.90
9730;DHT22;4904;49.152;11.004;2023-01-01T10:48:13;14.60;99.90
9730;DHT22;4904;49.152;11.004;2023-01-01T10:50:44;14.60;99.90
9730;DHT22;4904;49.152;11.004;2023-01-01T10:53:23;14.60;99.90
9730;DHT22;4904;49.152;11.004;2023-01-01T10:55:59;14.70;99.90
9730;DHT22;4904;49.152;11.004;2023-01-01T10:58:35;14.70;99.90
9730;DHT22;4904;49.152;11.004;2023-01-01T11:01:04;14.70;99.90
9730;DHT22;4904;49.152;11.004;2023-01-01T11:03:33;14.70;99.90
9730;DHT22;4904;49.152;11.004;2023-01-01T11:06:02;14.80;99.90
9730;DHT22;4904;49.152;11.004;2023-01-01T11:08:31;14.80;99.90
9730;DHT22;4904;49.152;11.004;2023-01-01T11:11:00;14.80;99.90
9730;DHT22;4904;49.152;11.004;2023-01-01T11:13:28;14.80;99.90
9730;DHT22;4904;49.152;11.004;2023-01-01T11:15:56;14.80;99.90
9730;DHT22;4904;49.152;11.004;2023-01-01T11:18:27;14.80;99.90
9730;DHT22;4904;49.152;11.004;2023-01-01T11:21:03;14.80;99.90
9730;DHT22;4904;49.152;11.004;2023-01-01T11:23:32;14.80;99.90
9730;DHT22;4904;49.152;11.004;2023-01-01T11:26:05;14.80;99.90
9730;DHT22;4904;49.152;11.004;2023-01-01T11:28:34;14.80;99.90
9730;DHT22;4904;49.152;11.004;2023-01-01T11:31:05;14.70;99.90
9730;DHT22;4904;49.152;11.004;2023-01-01T11:33:36;14.70;99.90
9730;DHT22;4904;49.152;11.004;2023-01-01T11:36:07;14.70;99.90
9730;DHT22;4904;49.152;11.004;2023-01-01T11:38:34;14.70;99.90
9730;DHT22;4904;49.152;11.004;2023-01-01T11:41:03;14.80;99.90
9730;DHT22;4904;49.152;11.004;2023-01-01T11:43:37;14.80;99.90
9730;DHT22;4904;49.152;11.004;2023-01-01T11:46:07;14.90;99.90
9730;DHT22;4904;49.152;11.004;2023-01-01T11:48:39;14.90;99.90
9730;DHT22;4904;49.152;11.004;2023-01-01T11:51:08;15.00;99.90
9730;DHT22;4904;49.152;11.004;2023-01-01T11:53:38;15.00;99.90
9730;DHT22;4904;49.152;11.004;2023-01-01T11:56:10;15.00;99.90
9730;DHT22;4904;49.152;11.004;2023-01-01T11:58:43;15.10;99.90
9730;DHT22;4904;49.152;11.004;2023-01-01T12:01:18;15.10;99.90
9730;DHT22;4904;49.152;11.004;2023-01-01T12:03:51;15.10;99.90
9730;DHT22;4904;49.152;11.004;2023-01-01T12:06:24;15.10;99.90
9730;DHT22;4904;49.152;11.004;2023-01-01T12:08:57;15.10;99.90
9730;DHT22;4904;49.152;11.004;2023-01-01T12:11:30;15.10;99.90
9730;DHT22;4904;49.152;11.004;2023-01-01T12:14:04;15.10;99.90
9730;DHT22;4904;49.152;11.004;2023-01-01T12:16:42;15.10;99.90
9730;DHT22;4904;49.152;11.004;2023-01-01T12:19:15;15.10;99.90
9730;DHT22;4904;49.152;11.004;2023-01-01T12:21:47;15.10;99.90
9730;DHT22;4904;49.152;11.004;2023-01-01T12:24:14;15.10;99.90
9730;DHT22;4904;49.152;11.004;2023-01-01T12:26:58;15.20;99.90
9730;DHT22;4904;49.152;11.004;2023-01-01T12:29:48;15.20;99.90
9730;DHT22;4904;49.152;11.004;2023-01-01T12:32:24;15.20;99.90
9730;DHT22;4904;49.152;11.004;2023-01-01T12:34:57;15.40;99.90
9730;DHT22;4904;49.152;11.004;2023-01-01T12:37:38;15.40;99.90
9730;DHT22;4904;49.152;11.004;2023-01-01T12:40:33;15.50;99.90
9730;DHT22;4904;49.152;11.004;2023-01-01T12:43:04;15.60;99.90
9730;DHT22;4904;49.152;11.004;2023-01-01T12:48:49;15.80;99.90
9730;DHT22;4904;49.152;11.004;2023-01-01T12:51:28;15.80;99.90
9730;DHT22;4904;49.152;11.004;2023-01-01T12:54:09;15.90;99.90
9730;DHT22;4904;49.152;11.004;2023-01-01T12:56:45;16.00;99.90
9730;DHT22;4904;49.152;11.004;2023-01-01T12:59:18;16.10;99.90
9730;DHT22;4904;49.152;11.004;2023-01-01T13:01:48;16.20;99.90
9730;DHT22;4904;49.152;11.004;2023-01-01T13:04:19;16.20;99.90
9730;DHT22;4904;49.152;11.004;2023-01-01T13:06:49;16.20;99.90
9730;DHT22;4904;49.152;11.004;2023-01-01T13:09:20;16.30;99.90
9730;DHT22;4904;49.152;11.004;2023-01-01T13:11:51;16.30;99.90
9730;DHT22;4904;49.152;11.004;2023-01-01T13:14:20;16.30;99.90
9730;DHT22;4904;49.152;11.004;2023-01-01T13:16:50;16.40;99.90
9730;DHT22;4904;49.152;11.004;2023-01-01T13:19:24;16.30;99.90
9730;DHT22;4904;49.152;11.004;2023-01-01T13:21:52;16.40;99.90
9730;DHT22;4904;49.152;11.004;2023-01-01T13:24:22;16.40;99.90
9730;DHT22;4904;49.152;11.004;2023-01-01T13:26:49;16.30;99.90
9730;DHT22;4904;49.152;11.004;2023-01-01T13:29:33;16.40;99.90
9730;DHT22;4904;49.152;11.004;2023-01-01T13:32:08;16.40;99.90
9730;DHT22;4904;49.152;11.004;2023-01-01T13:34:59;16.40;99.90
9730;DHT22;4904;49.152;11.004;2023-01-01T13:37:41;16.40;99.90
9730;DHT22;4904;49.152;11.004;2023-01-01T13:43:29;16.40;99.90
9730;DHT22;4904;49.152;11.004;2023-01-01T13:45:58;16.30;99.90
9730;DHT22;4904;49.152;11.004;2023-01-01T13:54:53;16.20;99.90
9730;DHT22;4904;49.152;11.004;2023-01-01T13:57:35;16.30;99.90
9730;DHT22;4904;49.152;11.004;2023-01-01T14:00:17;16.30;99.90
9730;DHT22;4904;49.152;11.004;2023-01-01T14:02:48;16.20;99.90
9730;DHT22;4904;49.152;11.004;2023-01-01T14:05:21;16.20;99.90
9730;DHT22;4904;49.152;11.004;2023-01-01T14:07:51;16.10;99.90
9730;DHT22;4904;49.152;11.004;2023-01-01T14:10:22;16.20;99.90
9730;DHT22;4904;49.152;11.004;2023-01-01T14:12:50;16.20;99.90
9730;DHT22;4904;49.152;11.004;2023-01-01T14:15:25;16.20;99.90
9730;DHT22;4904;49.152;11.004;2023-01-01T14:17:54;16.20;99.90
9730;DHT22;4904;49.152;11.004;2023-01-01T14:20:30;16.20;99.90
9730;DHT22;4904;49.152;11.004;2023-01-01T14:23:00;16.30;99.90
9730;DHT22;4904;49.152;11.004;2023-01-01T14:25:30;16.30;99.90
9730;DHT22;4904;49.152;11.004;2023-01-01T14:27:57;16.30;99.90
9730;DHT22;4904;49.152;11.004;2023-01-01T14:30:28;16.40;99.90
9730;DHT22;4904;49.152;11.004;2023-01-01T14:32:57;16.80;99.90
9730;DHT22;4904;49.152;11.004;2023-01-01T14:35:25;17.10;99.90
9730;DHT22;4904;49.152;11.004;2023-01-01T14:37:52;17.50;99.90
9730;DHT22;4904;49.152;11.004;2023-01-01T14:40:21;17.70;99.90
9730;DHT22;4904;49.152;11.004;2023-01-01T14:43:03;17.70;99.90
9730;DHT22;4904;49.152;11.004;2023-01-01T14:45:34;17.60;99.90
9730;DHT22;4904;49.152;11.004;2023-01-01T14:48:01;17.60;99.90
9730;DHT22;4904;49.152;11.004;2023-01-01T14:50:30;17.50;99.90
9730;DHT22;4904;49.152;11.004;2023-01-01T14:53:02;17.10;99.90
9730;DHT22;4904;49.152;11.004;2023-01-01T14:55:33;17.10;99.90
9730;DHT22;4904;49.152;11.004;2023-01-01T14:58:01;17.10;99.90
9730;DHT22;4904;49.152;11.004;2023-01-01T15:00:29;17.10;99.90
9730;DHT22;4904;49.152;11.004;2023-01-01T15:03:09;17.00;99.90
9730;DHT22;4904;49.152;11.004;2023-01-01T15:05:37;16.90;99.90
9730;DHT22;4904;49.152;11.004;2023-01-01T15:08:06;16.70;99.90
9730;DHT22;4904;49.152;11.004;2023-01-01T15:10:42;16.70;99.90
9730;DHT22;4904;49.152;11.004;2023-01-01T15:13:16;16.50;99.90
9730;DHT22;4904;49.152;11.004;2023-01-01T15:15:45;16.40;99.90
9730;DHT22;4904;49.152;11.004;2023-01-01T15:18:36;16.40;99.90
9730;DHT22;4904;49.152;11.004;2023-01-01T15:21:05;16.20;99.90
9730;DHT22;4904;49.152;11.004;2023-01-01T15:23:33;16.10;99.90
9730;DHT22;4904;49.152;11.004;2023-01-01T15:26:01;15.80;99.90
9730;DHT22;4904;49.152;11.004;2023-01-01T15:28:32;15.80;99.90
9730;DHT22;4904;49.152;11.004;2023-01-01T15:30:59;15.70;99.90
9730;DHT22;4904;49.152;11.004;2023-01-01T15:33:26;15.70;99.90
9730;DHT22;4904;49.152;11.004;2023-01-01T15:35:55;15.60;99.90
9730;DHT22;4904;49.152;11.004;2023-01-01T15:38:27;15.40;99.90
9730;DHT22;4904;49.152;11.004;2023-01-01T15:40:58;15.30;99.90
9730;DHT22;4904;49.152;11.004;2023-01-01T15:43:27;15.00;99.90
9730;DHT22;4904;49.152;11.004;2023-01-01T15:45:57;15.00;99.90
9730;DHT22;4904;49.152;11.004;2023-01-01T15:48:31;14.90;99.90
9730;DHT22;4904;49.152;11.004;2023-01-01T15:51:15;14.80;99.90
9730;DHT22;4904;49.152;11.004;2023-01-01T15:53:49;14.60;99.90
9730;DHT22;4904;49.152;11.004;2023-01-01T15:56:17;14.20;99.90
9730;DHT22;4904;49.152;11.004;2023-01-01T15:58:49;13.80;99.90
9730;DHT22;4904;49.152;11.004;2023-01-01T16:01:21;13.80;99.90
9730;DHT22;4904;49.152;11.004;2023-01-01T16:03:50;13.60;99.90
9730;DHT22;4904;49.152;11.004;2023-01-01T16:06:20;13.50;99.90
9730;DHT22;4904;49.152;11.004;2023-01-01T16:08:47;13.10;99.90
9730;DHT22;4904;49.152;11.004;2023-01-01T16:11:14;12.90;99.90
9730;DHT22;4904;49.152;11.004;2023-01-01T16:13:41;12.90;99.90
9730;DHT22;4904;49.152;11.004;2023-01-01T16:16:24;12.70;99.90